createdAt,value
2023-04-21T00:01:47.785Z,12.97
2023-04-21T00:04:15.570Z,12.91
2023-04-21T00:06:44.487Z,12.88
2023-04-21T00:09:12.109Z,12.90
2023-04-21T00:11:39.622Z,12.85
2023-04-21T00:14:07.269Z,12.75
2023-04-21T00:16:34.796Z,12.78
2023-04-21T00:19:06.764Z,12.76
2023-04-21T00:21:35.430Z,12.73
2023-04-21T00:24:03.370Z,12.75
2023-04-21T00:26:30.837Z,12.69
2023-04-21T00:28:58.473Z,12.56
2023-04-21T00:31:26.038Z,12.47
2023-04-21T00:33:54.025Z,12.42
2023-04-21T00:36:24.850Z,12.39
2023-04-21T00:38:54.397Z,12.47
2023-04-21T00:41:21.951Z,12.51
2023-04-21T00:44:05.438Z,12.49
2023-04-21T00:46:34.349Z,12.46
2023-04-21T00:49:06.178Z,12.44
2023-04-21T00:51:36.475Z,12.36
2023-04-21T00:54:06.866Z,12.28
2023-04-21T00:56:36.730Z,12.29
2023-04-21T00:59:05.275Z,12.16
2023-04-21T01:01:36.682Z,12.13
2023-04-21T01:04:06.232Z,12.12
2023-04-21T01:06:34.425Z,11.98
2023-04-21T01:09:02.198Z,12.12
2023-04-21T01:11:29.649Z,12.17
2023-04-21T01:13:57.192Z,12.30
2023-04-21T01:16:25.584Z,11.98
2023-04-21T01:18:54.776Z,11.82
2023-04-21T01:21:23.742Z,11.71
2023-04-21T01:23:51.553Z,11.68
2023-04-21T01:26:21.627Z,11.53
2023-04-21T01:28:50.077Z,11.41
2023-04-21T01:31:18.476Z,11.29
2023-04-21T01:33:46.304Z,11.20
2023-04-21T01:36:13.798Z,11.15
2023-04-21T01:38:42.552Z,11.14
2023-04-21T01:41:11.048Z,11.06
2023-04-21T01:43:39.324Z,11.06
2023-04-21T01:46:07.416Z,10.96
2023-04-21T01:48:36.596Z,11.02
2023-04-21T01:51:05.633Z,11.00
2023-04-21T01:53:33.478Z,11.00
2023-04-21T01:56:02.591Z,10.95
2023-04-21T01:58:31.777Z,10.95
2023-04-21T02:00:59.285Z,11.01
2023-04-21T02:03:26.982Z,10.94
2023-04-21T02:05:54.705Z,10.96
2023-04-21T02:08:22.106Z,11.00
2023-04-21T02:10:49.716Z,11.15
2023-04-21T02:13:20.199Z,11.11
2023-04-21T02:15:47.657Z,11.12
2023-04-21T02:18:16.895Z,11.14
2023-04-21T02:20:45.027Z,11.03
2023-04-21T02:23:14.606Z,10.94
2023-04-21T02:25:42.056Z,10.90
2023-04-21T02:28:09.557Z,10.84
2023-04-21T02:30:37.069Z,10.86
2023-04-21T02:33:04.625Z,10.76
2023-04-21T02:35:33.882Z,10.84
2023-04-21T02:38:07.173Z,10.94
2023-04-21T02:40:34.814Z,10.91
2023-04-21T02:43:03.267Z,10.95
2023-04-21T02:45:32.113Z,10.81
2023-04-21T02:47:59.705Z,10.84
2023-04-21T02:50:27.171Z,10.85
2023-04-21T02:52:54.630Z,10.81
2023-04-21T02:55:23.110Z,10.80
2023-04-21T02:57:50.623Z,10.63
2023-04-21T03:00:18.360Z,10.56
2023-04-21T03:02:46.098Z,10.47
2023-04-21T03:05:13.819Z,10.34
2023-04-21T03:07:41.401Z,10.32
2023-04-21T03:10:09.077Z,10.27
2023-04-21T03:12:37.764Z,10.34
2023-04-21T03:15:06.036Z,10.39
2023-04-21T03:17:35.548Z,10.51
2023-04-21T03:20:06.162Z,10.42
2023-04-21T03:22:34.331Z,10.39
2023-04-21T03:25:01.977Z,10.48
2023-04-21T03:27:29.479Z,10.45
2023-04-21T03:29:58.129Z,10.45
2023-04-21T03:32:28.878Z,10.44
2023-04-21T03:34:56.508Z,10.28
2023-04-21T03:37:24.000Z,10.43
2023-04-21T03:39:51.488Z,10.37
2023-04-21T03:42:20.327Z,10.26
2023-04-21T03:44:47.742Z,10.29
2023-04-21T03:47:17.545Z,10.39
2023-04-21T03:49:44.940Z,10.21
2023-04-21T03:52:12.517Z,10.29
2023-04-21T03:54:39.950Z,10.15
2023-04-21T03:57:07.642Z,10.19
2023-04-21T03:59:35.276Z,10.19
2023-04-21T04:02:02.782Z,10.18
2023-04-21T04:04:30.734Z,10.22
2023-04-21T04:06:58.492Z,10.10
2023-04-21T04:09:26.145Z,10.01
2023-04-21T04:11:53.612Z,10.07
2023-04-21T04:14:21.052Z,10.05
2023-04-21T04:16:48.495Z,10.06
2023-04-21T04:19:19.096Z,10.15
2023-04-21T04:21:48.945Z,10.10
2023-04-21T04:24:16.737Z,10.13
2023-04-21T04:26:44.503Z,10.12
2023-04-21T04:29:13.864Z,10.22
2023-04-21T04:31:41.418Z,10.39
2023-04-21T04:34:09.755Z,10.50
2023-04-21T04:36:38.321Z,10.74
2023-04-21T04:39:07.204Z,10.65
2023-04-21T04:41:36.469Z,10.76
2023-04-21T04:44:05.058Z,10.85
2023-04-21T04:46:33.203Z,11.03
2023-04-21T04:49:01.941Z,11.08
2023-04-21T04:51:30.114Z,11.23
2023-04-21T04:53:57.511Z,11.35
2023-04-21T04:56:25.055Z,11.43
2023-04-21T04:58:52.444Z,11.51
2023-04-21T05:01:20.036Z,11.72
2023-04-21T05:03:47.734Z,11.85
2023-04-21T05:06:15.238Z,12.00
2023-04-21T05:08:42.717Z,12.18
2023-04-21T05:11:10.325Z,12.20
2023-04-21T05:13:39.942Z,12.36
2023-04-21T05:16:10.196Z,12.50
2023-04-21T05:18:38.523Z,12.67
2023-04-21T05:21:06.258Z,13.09
2023-04-21T05:23:34.124Z,13.37
2023-04-21T05:26:04.204Z,13.54
2023-04-21T05:28:32.408Z,13.39
2023-04-21T05:30:59.883Z,13.51
2023-04-21T05:33:27.332Z,13.58
2023-04-21T05:35:54.882Z,13.93
2023-04-21T05:38:22.349Z,13.88
2023-04-21T05:40:56.460Z,13.78
2023-04-21T05:43:35.771Z,13.88
2023-04-21T05:46:07.590Z,13.78
2023-04-21T05:48:35.424Z,13.60
2023-04-21T05:51:13.395Z,13.47
2023-04-21T05:53:41.737Z,14.02
2023-04-21T05:56:14.273Z,14.00
2023-04-21T05:58:41.954Z,13.78
2023-04-21T06:01:09.546Z,13.83
2023-04-21T06:03:37.201Z,13.67
2023-04-21T06:06:06.268Z,13.80
2023-04-21T06:08:34.159Z,14.04
2023-04-21T06:11:01.631Z,14.04
2023-04-21T06:13:29.547Z,14.28
2023-04-21T06:15:57.080Z,14.47
2023-04-21T06:18:26.746Z,14.76
2023-04-21T06:20:55.634Z,14.56
2023-04-21T06:23:23.207Z,14.53
2023-04-21T06:26:05.534Z,14.48
2023-04-21T06:28:34.877Z,14.81
2023-04-21T06:31:04.937Z,15.44
2023-04-21T06:33:34.472Z,15.55
2023-04-21T06:36:05.839Z,15.58
2023-04-21T06:38:33.680Z,15.47
2023-04-21T06:41:01.211Z,15.88
2023-04-21T06:43:31.400Z,15.99
2023-04-21T06:45:58.924Z,15.90
2023-04-21T06:48:26.503Z,16.00
2023-04-21T06:50:54.333Z,16.31
2023-04-21T06:53:21.876Z,16.30
2023-04-21T06:55:49.631Z,16.17
2023-04-21T06:58:17.974Z,16.31
2023-04-21T07:00:47.467Z,16.52
2023-04-21T07:03:15.070Z,16.66
2023-04-21T07:05:42.643Z,16.92
2023-04-21T07:08:10.115Z,16.75
2023-04-21T07:10:37.700Z,16.72
2023-04-21T07:13:05.329Z,16.75
2023-04-21T07:15:32.927Z,16.98
2023-04-21T07:18:01.036Z,16.93
2023-04-21T07:20:28.683Z,17.24
2023-04-21T07:22:57.505Z,17.28
2023-04-21T07:25:24.947Z,17.50
2023-04-21T07:27:52.508Z,17.52
2023-04-21T07:30:20.090Z,17.58
2023-04-21T07:32:47.805Z,17.59
2023-04-21T07:35:15.906Z,17.68
2023-04-21T07:37:43.319Z,17.80
2023-04-21T07:40:11.589Z,18.06
2023-04-21T07:42:39.548Z,18.35
2023-04-21T07:45:09.332Z,18.52
2023-04-21T07:47:36.864Z,18.78
2023-04-21T07:50:04.945Z,18.67
2023-04-21T07:52:32.494Z,18.79
2023-04-21T07:54:59.973Z,18.84
2023-04-21T07:57:27.412Z,19.08
2023-04-21T07:59:54.890Z,18.98
2023-04-21T08:02:22.592Z,19.02
2023-04-21T08:04:50.628Z,19.09
2023-04-21T08:07:18.081Z,19.10
2023-04-21T08:09:47.730Z,19.30
2023-04-21T08:12:15.275Z,19.46
2023-04-21T08:14:44.001Z,19.42
2023-04-21T08:17:11.486Z,19.54
2023-04-21T08:19:38.949Z,19.54
2023-04-21T08:22:06.867Z,20.06
2023-04-21T08:24:34.324Z,20.12
2023-04-21T08:27:02.368Z,20.06
2023-04-21T08:29:30.058Z,20.03
2023-04-21T08:31:57.636Z,20.03
2023-04-21T08:34:27.418Z,20.14
2023-04-21T08:36:55.876Z,20.32
2023-04-21T08:39:23.463Z,20.22
2023-04-21T08:41:54.599Z,20.30
2023-04-21T08:44:22.453Z,20.21
2023-04-21T08:46:51.489Z,20.53
2023-04-21T08:49:22.038Z,20.44
2023-04-21T08:51:49.791Z,20.46
2023-04-21T08:54:17.235Z,20.49
2023-04-21T08:56:44.658Z,20.68
2023-04-21T08:59:12.153Z,20.58
2023-04-21T09:02:16.836Z,20.67
2023-04-21T09:04:47.340Z,20.57
2023-04-21T09:07:39.277Z,21.03
2023-04-21T09:10:07.749Z,21.22
2023-04-21T09:12:35.203Z,21.48
2023-04-21T09:15:07.022Z,21.40
2023-04-21T09:17:36.807Z,21.41
2023-04-21T09:20:22.148Z,21.53
2023-04-21T09:22:51.380Z,21.51
2023-04-21T09:25:23.681Z,21.56
2023-04-21T09:27:51.105Z,21.68
2023-04-21T09:30:22.737Z,21.48
2023-04-21T09:32:50.525Z,21.63
2023-04-21T09:35:17.959Z,21.96
2023-04-21T09:37:45.593Z,21.93
2023-04-21T09:40:20.842Z,21.95
2023-04-21T09:42:49.589Z,21.73
2023-04-21T09:45:32.914Z,22.11
2023-04-21T09:48:09.010Z,22.22
2023-04-21T09:51:20.984Z,22.02
2023-04-21T09:53:29.275Z,22.18
2023-04-21T09:55:59.356Z,22.27
2023-04-21T09:58:29.041Z,22.29
2023-04-21T10:00:58.131Z,22.34
2023-04-21T10:03:29.562Z,22.25
2023-04-21T10:05:58.016Z,22.11
2023-04-21T10:08:25.635Z,22.06
2023-04-21T10:10:54.501Z,22.49
2023-04-21T10:13:23.026Z,22.78
2023-04-21T10:16:07.747Z,23.11
2023-04-21T10:18:42.813Z,23.17
2023-04-21T10:21:13.288Z,23.08
2023-04-21T10:23:44.508Z,22.91
2023-04-21T10:26:19.723Z,22.79
2023-04-21T10:29:06.913Z,22.92
2023-04-21T10:31:44.565Z,22.63
2023-04-21T10:34:12.418Z,22.33
2023-04-21T10:36:46.012Z,22.46
2023-04-21T10:39:42.448Z,22.73
2023-04-21T10:42:19.840Z,22.85
2023-04-21T10:44:59.882Z,23.22
2023-04-21T10:47:52.060Z,22.94
2023-04-21T10:50:29.598Z,22.56
2023-04-21T10:53:12.533Z,22.42
2023-04-21T10:55:42.452Z,22.26
2023-04-21T10:58:10.714Z,21.73
2023-04-21T11:00:39.299Z,21.38
2023-04-21T11:03:09.776Z,21.06
2023-04-21T11:05:42.445Z,20.88
2023-04-21T11:08:19.249Z,20.87
2023-04-21T11:10:56.817Z,20.93
2023-04-21T11:13:33.858Z,20.91
2023-04-21T11:16:05.932Z,20.98
2023-04-21T11:18:37.954Z,21.26
2023-04-21T11:21:18.100Z,21.25
2023-04-21T11:23:54.325Z,21.51
2023-04-21T11:26:33.419Z,21.68
2023-04-21T11:29:05.499Z,21.67
2023-04-21T11:31:33.565Z,21.92
2023-04-21T11:34:02.354Z,22.36
2023-04-21T11:36:30.448Z,22.57
2023-04-21T11:38:57.919Z,22.71
2023-04-21T11:41:26.996Z,23.06
2023-04-21T11:43:54.507Z,22.89
2023-04-21T11:46:27.546Z,23.10
2023-04-21T11:49:30.573Z,23.35
2023-04-21T11:51:58.191Z,23.73
2023-04-21T11:54:25.721Z,24.35
2023-04-21T11:56:56.095Z,24.53
2023-04-21T11:59:26.355Z,24.29
2023-04-21T12:01:55.480Z,24.68
2023-04-21T12:04:26.015Z,24.88
2023-04-21T12:07:02.710Z,25.15
2023-04-21T12:09:31.088Z,24.58
2023-04-21T12:12:03.794Z,24.34
2023-04-21T12:14:34.845Z,24.40
2023-04-21T12:17:02.329Z,24.37
2023-04-21T12:19:41.171Z,24.59
2023-04-21T12:22:22.988Z,24.59
2023-04-21T12:24:50.482Z,24.67
2023-04-21T12:27:19.184Z,24.74
2023-04-21T12:29:46.699Z,24.94
2023-04-21T12:32:14.975Z,24.97
2023-04-21T12:34:43.328Z,25.14
2023-04-21T12:37:11.116Z,25.06
2023-04-21T12:39:38.612Z,24.96
2023-04-21T12:42:06.428Z,24.99
2023-04-21T12:44:33.924Z,24.75
2023-04-21T12:47:01.453Z,24.64
2023-04-21T12:49:29.246Z,24.39
2023-04-21T12:51:56.755Z,24.43
2023-04-21T12:54:24.178Z,24.84
2023-04-21T12:56:51.839Z,24.58
2023-04-21T12:59:19.252Z,24.12
2023-04-21T13:01:47.053Z,24.25
2023-04-21T13:04:14.923Z,24.35
2023-04-21T13:06:42.644Z,24.42
2023-04-21T13:09:11.357Z,24.37
2023-04-21T13:11:38.867Z,24.32
2023-04-21T13:14:06.919Z,24.13
2023-04-21T13:16:34.420Z,24.07
2023-04-21T13:19:01.897Z,24.05
2023-04-21T13:21:29.299Z,23.98
2023-04-21T13:23:57.431Z,23.58
2023-04-21T13:26:25.844Z,23.33
2023-04-21T13:28:53.367Z,23.16
2023-04-21T13:31:20.929Z,22.98
2023-04-21T13:33:50.304Z,23.14
2023-04-21T13:36:21.077Z,23.49
2023-04-21T13:38:50.970Z,23.74
2023-04-21T13:41:18.426Z,24.03
2023-04-21T13:43:46.714Z,24.12
2023-04-21T13:46:14.794Z,24.16
2023-04-21T13:48:42.509Z,24.49
2023-04-21T13:51:10.509Z,24.78
2023-04-21T13:53:39.067Z,24.73
2023-04-21T13:56:06.757Z,24.67
2023-04-21T13:58:34.332Z,24.53
2023-04-21T14:01:01.846Z,24.40
2023-04-21T14:03:29.668Z,23.82
2023-04-21T14:05:57.436Z,23.28
2023-04-21T14:08:25.196Z,23.43
2023-04-21T14:10:52.766Z,23.73
2023-04-21T14:13:33.861Z,23.35
2023-04-21T14:16:05.523Z,23.60
2023-04-21T14:18:36.465Z,24.25
2023-04-21T14:21:04.206Z,24.56
2023-04-21T14:23:31.745Z,25.04
2023-04-21T14:25:59.241Z,25.38
2023-04-21T14:28:26.788Z,25.50
2023-04-21T14:30:54.267Z,25.84
2023-04-21T14:33:21.740Z,25.78
2023-04-21T14:35:49.437Z,25.17
2023-04-21T14:38:16.928Z,25.14
2023-04-21T14:40:44.844Z,25.39
2023-04-21T14:43:12.376Z,25.31
2023-04-21T14:45:41.218Z,24.85
2023-04-21T14:48:08.810Z,24.57
2023-04-21T14:50:40.420Z,24.27
2023-04-21T14:53:08.049Z,24.22
2023-04-21T14:55:35.850Z,24.06
2023-04-21T14:58:03.458Z,23.81
2023-04-21T15:00:32.089Z,23.66
2023-04-21T15:03:00.030Z,23.56
2023-04-21T15:05:27.786Z,23.52
2023-04-21T15:07:55.748Z,22.91
2023-04-21T15:10:23.283Z,22.86
2023-04-21T15:12:50.694Z,22.34
2023-04-21T15:15:18.586Z,22.23
2023-04-21T15:17:46.139Z,22.11
2023-04-21T15:20:13.844Z,22.00
2023-04-21T15:22:41.952Z,21.81
2023-04-21T15:25:10.024Z,21.68
2023-04-21T15:27:38.528Z,21.37
2023-04-21T15:30:06.964Z,21.35
2023-04-21T15:32:34.451Z,20.88
2023-04-21T15:35:03.284Z,20.60
2023-04-21T15:37:30.987Z,20.57
2023-04-21T15:39:58.644Z,20.71
2023-04-21T15:42:27.586Z,20.37
2023-04-21T15:44:55.777Z,20.42
2023-04-21T15:47:23.625Z,20.03
2023-04-21T15:49:54.465Z,20.12
2023-04-21T15:52:22.194Z,20.28
2023-04-21T15:54:51.173Z,20.44
2023-04-21T15:57:18.667Z,20.56
2023-04-21T15:59:46.253Z,20.57
2023-04-21T16:02:13.866Z,20.62
2023-04-21T16:04:42.899Z,20.86
2023-04-21T16:07:11.511Z,21.23
2023-04-21T16:09:38.978Z,21.50
2023-04-21T16:12:10.269Z,21.79
2023-04-21T16:14:54.311Z,22.14
2023-04-21T16:17:26.329Z,22.37
2023-04-21T16:19:54.696Z,22.38
2023-04-21T16:22:23.926Z,22.32
2023-04-21T16:24:53.154Z,22.48
2023-04-21T16:27:20.924Z,22.26
2023-04-21T16:29:50.288Z,22.04
2023-04-21T16:32:18.599Z,21.78
2023-04-21T16:34:46.302Z,21.55
2023-04-21T16:37:14.796Z,21.35
2023-04-21T16:39:43.805Z,20.78
2023-04-21T16:42:15.976Z,20.25
2023-04-21T16:44:45.149Z,19.92
2023-04-21T16:47:14.086Z,19.73
2023-04-21T16:49:41.637Z,19.54
2023-04-21T16:52:11.223Z,19.41
2023-04-21T16:54:39.013Z,19.37
2023-04-21T16:57:07.290Z,19.65
2023-04-21T16:59:39.449Z,19.77
2023-04-21T17:02:07.169Z,19.52
2023-04-21T17:04:36.657Z,19.23
2023-04-21T17:07:04.411Z,18.85
2023-04-21T17:09:31.899Z,18.92
2023-04-21T17:12:00.205Z,18.64
2023-04-21T17:14:28.084Z,18.66
2023-04-21T17:16:56.189Z,18.14
2023-04-21T17:19:25.984Z,18.02
2023-04-21T17:21:53.476Z,17.89
2023-04-21T17:24:21.055Z,17.94
2023-04-21T17:26:48.556Z,17.78
2023-04-21T17:29:16.166Z,17.85
2023-04-21T17:31:44.510Z,17.74
2023-04-21T17:34:13.345Z,17.59
2023-04-21T17:36:41.234Z,17.66
2023-04-21T17:39:08.682Z,17.40
2023-04-21T17:41:37.049Z,17.33
2023-04-21T17:44:04.870Z,17.24
2023-04-21T17:46:32.463Z,17.13
2023-04-21T17:49:00.782Z,17.25
2023-04-21T17:51:28.901Z,17.11
2023-04-21T17:53:56.670Z,16.97
2023-04-21T17:56:24.770Z,16.93
2023-04-21T17:58:52.446Z,16.90
2023-04-21T18:01:19.993Z,17.05
2023-04-21T18:03:50.984Z,17.07
2023-04-21T18:06:19.126Z,16.95
2023-04-21T18:08:46.750Z,16.76
2023-04-21T18:11:15.548Z,16.95
2023-04-21T18:13:46.211Z,17.02
2023-04-21T18:16:16.753Z,16.93
2023-04-21T18:18:47.351Z,16.86
2023-04-21T18:21:16.288Z,16.79
2023-04-21T18:23:44.931Z,16.73
2023-04-21T18:26:15.747Z,16.75
2023-04-21T18:28:45.876Z,16.61
2023-04-21T18:31:14.589Z,16.71
2023-04-21T18:33:43.409Z,16.75
2023-04-21T18:36:10.984Z,16.44
2023-04-21T18:38:38.997Z,16.25
2023-04-21T18:41:06.603Z,16.12
2023-04-21T18:43:35.193Z,16.09
2023-04-21T18:46:02.739Z,16.14
2023-04-21T18:48:32.032Z,16.14
2023-04-21T18:51:00.142Z,16.42
2023-04-21T18:53:28.411Z,16.41
2023-04-21T18:55:56.080Z,16.21
2023-04-21T18:58:23.632Z,16.19
2023-04-21T19:00:51.168Z,16.11
2023-04-21T19:03:20.282Z,16.19
2023-04-21T19:05:48.743Z,16.07
2023-04-21T19:08:18.278Z,16.07
2023-04-21T19:10:51.487Z,15.97
2023-04-21T19:13:20.941Z,15.84
2023-04-21T19:15:48.483Z,15.90
2023-04-21T19:18:17.698Z,15.80
2023-04-21T19:20:45.569Z,15.76
2023-04-21T19:23:15.954Z,15.74
2023-04-21T19:25:43.528Z,15.56
2023-04-21T19:28:12.181Z,15.48
2023-04-21T19:30:40.098Z,15.49
2023-04-21T19:33:09.048Z,15.52
2023-04-21T19:35:36.660Z,15.77
2023-04-21T19:38:06.204Z,15.72
2023-04-21T19:40:33.756Z,15.63
2023-04-21T19:43:02.408Z,15.50
2023-04-21T19:45:30.000Z,15.29
2023-04-21T19:47:57.500Z,15.26
2023-04-21T19:50:24.981Z,15.29
2023-04-21T19:52:52.527Z,15.28
2023-04-21T19:55:20.570Z,15.17
2023-04-21T19:57:48.994Z,15.18
2023-04-21T20:00:18.194Z,15.06
2023-04-21T20:02:45.915Z,15.07
2023-04-21T20:05:14.661Z,15.15
2023-04-21T20:07:42.194Z,15.07
2023-04-21T20:10:10.952Z,15.01
2023-04-21T20:12:38.431Z,14.98
2023-04-21T20:15:07.136Z,15.06
2023-04-21T20:17:35.747Z,15.11
2023-04-21T20:20:05.325Z,15.27
2023-04-21T20:22:32.842Z,15.31
2023-04-21T20:25:00.439Z,15.22
2023-04-21T20:27:30.327Z,15.24
2023-04-21T20:29:59.550Z,15.25
2023-04-21T20:32:27.056Z,15.16
2023-04-21T20:34:54.561Z,14.97
2023-04-21T20:37:23.854Z,14.88
2023-04-21T20:39:52.444Z,14.90
2023-04-21T20:42:21.428Z,14.81
2023-04-21T20:44:48.936Z,14.87
2023-04-21T20:47:17.618Z,14.81
2023-04-21T20:49:47.423Z,14.79
2023-04-21T20:52:16.124Z,14.80
2023-04-21T20:54:44.092Z,14.75
2023-04-21T20:57:14.350Z,14.91
2023-04-21T20:59:42.453Z,14.85
2023-04-21T21:02:10.340Z,14.99
2023-04-21T21:04:38.049Z,14.94
2023-04-21T21:07:07.813Z,14.83
2023-04-21T21:09:35.722Z,14.82
2023-04-21T21:12:03.704Z,14.94
2023-04-21T21:14:34.271Z,14.94
2023-04-21T21:17:02.953Z,14.98
2023-04-21T21:19:30.969Z,15.03
2023-04-21T21:21:59.681Z,15.01
2023-04-21T21:24:28.960Z,15.03
2023-04-21T21:26:57.347Z,14.96
2023-04-21T21:29:25.394Z,15.02
2023-04-21T21:31:53.055Z,14.89
2023-04-21T21:34:20.972Z,14.78
2023-04-21T21:36:48.528Z,14.74
2023-04-21T21:39:16.107Z,14.74
2023-04-21T21:41:43.676Z,14.78
2023-04-21T21:44:11.306Z,14.75
2023-04-21T21:46:39.098Z,14.74
2023-04-21T21:49:06.706Z,14.67
2023-04-21T21:51:34.208Z,14.70
2023-04-21T21:54:01.670Z,14.65
2023-04-21T21:56:29.138Z,14.65
2023-04-21T21:58:56.730Z,14.62
2023-04-21T22:01:26.946Z,14.66
2023-04-21T22:03:54.549Z,14.54
2023-04-21T22:06:26.905Z,14.49
2023-04-21T22:08:54.503Z,14.45
2023-04-21T22:11:22.877Z,14.40
2023-04-21T22:13:50.502Z,14.34
2023-04-21T22:16:18.608Z,14.38
2023-04-21T22:18:47.498Z,14.34
2023-04-21T22:21:15.489Z,14.37
2023-04-21T22:23:43.104Z,14.33
2023-04-21T22:26:10.675Z,14.32
2023-04-21T22:28:41.702Z,14.33
2023-04-21T22:31:10.453Z,14.33
2023-04-21T22:33:38.207Z,14.35
2023-04-21T22:36:07.284Z,14.31
2023-04-21T22:38:38.587Z,14.29
2023-04-21T22:41:07.931Z,14.24
2023-04-21T22:43:35.766Z,14.25
2023-04-21T22:46:03.362Z,14.24
2023-04-21T22:48:34.817Z,14.21
2023-04-21T22:51:02.959Z,14.20
2023-04-21T22:53:30.712Z,14.14
2023-04-21T22:55:58.356Z,13.99
2023-04-21T22:58:26.500Z,14.03
2023-04-21T23:00:54.127Z,14.02
2023-04-21T23:03:23.367Z,13.97
2023-04-21T23:05:51.101Z,13.94
2023-04-21T23:08:18.538Z,13.89
2023-04-21T23:10:45.978Z,13.87
2023-04-21T23:13:16.056Z,13.84
2023-04-21T23:15:43.604Z,13.86
2023-04-21T23:18:11.142Z,13.89
2023-04-21T23:20:38.821Z,13.86
2023-04-21T23:23:06.546Z,13.89
2023-04-21T23:25:34.128Z,13.81
2023-04-21T23:28:01.594Z,13.81
2023-04-21T23:30:29.120Z,13.82
2023-04-21T23:32:56.704Z,13.81
2023-04-21T23:35:24.259Z,13.75
2023-04-21T23:37:53.001Z,13.73
2023-04-21T23:40:20.862Z,13.74
2023-04-21T23:42:48.936Z,13.76
2023-04-21T23:45:16.788Z,13.75
2023-04-21T23:47:45.785Z,13.70
2023-04-21T23:50:13.679Z,13.69
2023-04-21T23:52:42.222Z,13.66
2023-04-21T23:55:14.011Z,13.67
2023-04-21T23:57:41.527Z,13.54
